createdAt,value
2023-02-23T00:01:14.440Z,48.40
2023-02-23T00:03:44.010Z,46.80
2023-02-23T00:06:11.802Z,48.70
2023-02-23T00:08:39.541Z,47.00
2023-02-23T00:11:07.998Z,47.47
2023-02-23T00:13:37.620Z,50.60
2023-02-23T00:16:06.730Z,50.10
2023-02-23T00:18:45.030Z,51.40
2023-02-23T00:21:16.411Z,48.70
2023-02-23T00:23:45.314Z,50.20
2023-02-23T00:26:13.962Z,50.93
2023-02-23T00:28:43.441Z,48.63
2023-02-23T00:31:11.761Z,49.30
2023-02-23T00:33:39.664Z,49.80
2023-02-23T00:36:09.231Z,54.70
2023-02-23T00:38:39.856Z,46.83
2023-02-23T00:41:08.615Z,53.93
2023-02-23T00:43:37.257Z,54.60
2023-02-23T00:46:06.789Z,51.20
2023-02-23T00:48:34.647Z,47.73
2023-02-23T00:51:02.859Z,47.70
2023-02-23T00:53:30.556Z,50.83
2023-02-23T00:55:59.755Z,52.83
2023-02-23T00:58:27.596Z,50.63
2023-02-23T01:00:55.357Z,51.83
2023-02-23T01:03:23.006Z,51.60
2023-02-23T01:05:51.047Z,48.70
2023-02-23T01:08:18.951Z,51.63
2023-02-23T01:10:52.536Z,51.17
2023-02-23T01:13:21.859Z,49.67
2023-02-23T01:15:49.754Z,53.00
2023-02-23T01:18:17.691Z,49.13
2023-02-23T01:20:45.523Z,53.23
2023-02-23T01:23:13.859Z,53.07
2023-02-23T01:25:42.725Z,52.60
2023-02-23T01:28:10.461Z,51.43
2023-02-23T01:30:40.165Z,52.87
2023-02-23T01:33:07.971Z,51.87
2023-02-23T01:35:36.032Z,54.27
2023-02-23T01:38:04.053Z,53.40
2023-02-23T01:40:32.294Z,51.07
2023-02-23T01:43:00.983Z,58.40
2023-02-23T01:45:31.240Z,57.33
2023-02-23T01:48:03.426Z,52.63
2023-02-23T01:50:33.717Z,53.57
2023-02-23T01:53:01.359Z,52.03
2023-02-23T01:55:29.849Z,55.03
2023-02-23T01:58:02.111Z,57.00
2023-02-23T02:00:31.836Z,55.70
2023-02-23T02:03:01.282Z,57.97
2023-02-23T02:05:29.548Z,57.73
2023-02-23T02:07:59.007Z,50.80
2023-02-23T02:10:47.513Z,55.13
2023-02-23T02:13:19.728Z,53.87
2023-02-23T02:16:18.590Z,50.87
2023-02-23T02:18:58.355Z,56.40
2023-02-23T02:22:01.782Z,58.30
2023-02-23T02:24:49.694Z,60.93
2023-02-23T02:29:56.073Z,57.80
2023-02-23T02:32:55.282Z,59.30
2023-02-23T02:35:52.791Z,54.90
2023-02-23T02:38:38.604Z,57.37
2023-02-23T02:41:07.602Z,57.43
2023-02-23T02:43:40.693Z,60.40
2023-02-23T02:46:11.839Z,62.10
2023-02-23T02:48:43.349Z,58.23
2023-02-23T02:51:18.158Z,57.50
2023-02-23T02:53:49.659Z,57.90
2023-02-23T02:56:19.735Z,59.77
2023-02-23T02:58:50.048Z,57.70
2023-02-23T03:01:35.945Z,57.43
2023-02-23T03:04:36.243Z,56.57
2023-02-23T03:07:24.229Z,63.37
2023-02-23T03:10:13.211Z,60.70
2023-02-23T03:13:00.224Z,59.80
2023-02-23T03:15:55.376Z,61.43
2023-02-23T03:18:51.560Z,59.53
2023-02-23T03:21:46.115Z,59.67
2023-02-23T03:24:34.411Z,62.83
2023-02-23T03:27:22.748Z,58.13
2023-02-23T03:30:11.939Z,59.63
2023-02-23T03:33:01.510Z,60.53
2023-02-23T03:35:49.328Z,60.30
2023-02-23T03:38:35.748Z,61.80
2023-02-23T03:41:21.194Z,60.50
2023-02-23T03:44:11.294Z,57.00
2023-02-23T03:46:56.642Z,61.47
2023-02-23T03:49:42.762Z,57.50
2023-02-23T03:52:30.101Z,58.93
2023-02-23T03:55:17.049Z,59.37
2023-02-23T03:58:02.681Z,63.33
2023-02-23T04:00:51.106Z,61.97
2023-02-23T04:03:38.580Z,66.73
2023-02-23T04:06:26.983Z,63.93
2023-02-23T04:09:12.278Z,63.40
2023-02-23T04:12:00.112Z,61.53
2023-02-23T04:14:29.531Z,60.43
2023-02-23T04:16:57.817Z,57.73
2023-02-23T04:19:27.842Z,58.53
2023-02-23T04:21:55.633Z,60.23
2023-02-23T04:24:23.517Z,54.67
2023-02-23T04:26:51.312Z,55.10
2023-02-23T04:29:19.022Z,54.97
2023-02-23T04:31:47.321Z,52.83
2023-02-23T04:34:16.488Z,50.93
2023-02-23T04:36:44.250Z,53.83
2023-02-23T04:39:11.940Z,51.97
2023-02-23T04:41:39.672Z,51.43
2023-02-23T04:44:07.313Z,48.87
2023-02-23T04:46:35.189Z,53.73
2023-02-23T04:49:03.799Z,52.37
2023-02-23T04:51:34.202Z,50.13
2023-02-23T04:54:02.611Z,46.57
2023-02-23T04:56:30.323Z,44.20
2023-02-23T04:58:58.296Z,44.57
2023-02-23T05:01:26.881Z,47.27
2023-02-23T05:03:55.721Z,41.83
2023-02-23T05:06:23.450Z,40.60
2023-02-23T05:08:52.651Z,39.20
2023-02-23T05:11:20.589Z,37.00
2023-02-23T05:13:48.531Z,36.67
2023-02-23T05:16:16.374Z,38.80
2023-02-23T05:18:44.268Z,36.13
2023-02-23T05:21:12.180Z,37.27
2023-02-23T05:23:40.173Z,31.97
2023-02-23T05:26:10.330Z,34.67
2023-02-23T05:28:38.520Z,34.77
2023-02-23T05:31:06.594Z,36.50
2023-02-23T05:33:34.663Z,34.97
2023-02-23T05:36:05.520Z,35.63
2023-02-23T05:38:33.845Z,35.97
2023-02-23T05:41:06.291Z,36.13
2023-02-23T05:43:35.427Z,36.60
2023-02-23T05:46:07.537Z,38.33
2023-02-23T05:48:35.253Z,38.20
2023-02-23T05:51:12.344Z,38.83
2023-02-23T05:53:40.274Z,41.00
2023-02-23T05:56:09.939Z,42.13
2023-02-23T05:58:39.024Z,41.13
2023-02-23T06:01:06.932Z,46.73
2023-02-23T06:03:34.838Z,42.30
2023-02-23T06:06:02.632Z,45.53
2023-02-23T06:08:30.331Z,47.57
2023-02-23T06:10:58.144Z,43.43
2023-02-23T06:13:26.273Z,45.10
2023-02-23T06:15:55.492Z,45.20
2023-02-23T06:18:23.212Z,45.00
2023-02-23T06:20:51.198Z,46.67
2023-02-23T06:23:18.874Z,47.50
2023-02-23T06:25:47.296Z,44.90
2023-02-23T06:28:15.295Z,44.93
2023-02-23T06:30:43.075Z,46.47
2023-02-23T06:33:12.270Z,44.73
2023-02-23T06:35:39.938Z,43.30
2023-02-23T06:38:07.705Z,42.83
2023-02-23T06:40:35.385Z,42.37
2023-02-23T06:43:03.598Z,42.97
2023-02-23T06:45:31.813Z,46.47
2023-02-23T06:47:59.736Z,44.47
2023-02-23T06:50:28.941Z,44.70
2023-02-23T06:52:57.508Z,39.50
2023-02-23T06:55:25.211Z,40.53
2023-02-23T06:57:54.242Z,39.70
2023-02-23T07:00:22.965Z,39.50
2023-02-23T07:02:50.665Z,37.63
2023-02-23T07:05:18.552Z,36.53
2023-02-23T07:07:48.020Z,34.40
2023-02-23T07:10:15.844Z,33.73
2023-02-23T07:12:44.553Z,32.23
2023-02-23T07:15:12.750Z,33.60
2023-02-23T07:17:40.554Z,32.73
2023-02-23T07:20:09.031Z,33.33
2023-02-23T07:22:39.078Z,34.30
2023-02-23T07:25:09.825Z,33.93
2023-02-23T07:27:37.506Z,32.80
2023-02-23T07:30:05.876Z,30.03
2023-02-23T07:32:34.037Z,30.97
2023-02-23T07:35:01.994Z,27.27
2023-02-23T07:37:29.909Z,30.37
2023-02-23T07:39:59.470Z,27.60
2023-02-23T07:42:31.244Z,26.63
2023-02-23T07:44:58.942Z,29.10
2023-02-23T07:47:31.043Z,28.03
2023-02-23T07:50:00.566Z,32.93
2023-02-23T07:52:28.779Z,30.57
2023-02-23T07:54:56.539Z,29.77
2023-02-23T07:57:25.073Z,28.63
2023-02-23T07:59:54.267Z,28.17
2023-02-23T08:02:21.994Z,29.43
2023-02-23T08:04:50.638Z,36.37
2023-02-23T08:07:24.653Z,35.03
2023-02-23T08:09:55.399Z,31.13
2023-02-23T08:12:29.692Z,28.67
2023-02-23T08:14:58.778Z,30.23
2023-02-23T08:17:27.527Z,30.10
2023-02-23T08:19:55.246Z,29.67
2023-02-23T08:22:23.105Z,27.83
2023-02-23T08:24:50.871Z,27.90
2023-02-23T08:29:46.385Z,29.00
2023-02-23T08:32:20.383Z,29.93
2023-02-23T08:34:48.059Z,31.40
2023-02-23T08:37:15.699Z,34.27
2023-02-23T08:39:44.066Z,37.00
2023-02-23T08:42:11.848Z,41.70
2023-02-23T08:44:39.759Z,39.10
2023-02-23T08:47:07.499Z,46.37
2023-02-23T08:49:36.554Z,44.13
2023-02-23T08:52:04.407Z,42.30
2023-02-23T08:54:32.209Z,48.33
2023-02-23T08:57:00.023Z,49.17
2023-02-23T08:59:27.948Z,46.33
2023-02-23T09:01:55.714Z,49.17
2023-02-23T09:04:23.493Z,48.67
2023-02-23T09:06:54.366Z,49.30
2023-02-23T09:09:22.102Z,47.73
2023-02-23T09:11:51.137Z,48.07
2023-02-23T09:14:19.287Z,44.97
2023-02-23T09:16:47.152Z,47.97
2023-02-23T09:19:15.125Z,43.43
2023-02-23T09:21:43.117Z,43.87
2023-02-23T09:24:12.256Z,47.67
2023-02-23T09:26:45.785Z,47.93
2023-02-23T09:29:13.737Z,49.77
2023-02-23T09:31:43.591Z,50.63
2023-02-23T09:34:12.689Z,46.60
2023-02-23T09:36:40.389Z,48.07
2023-02-23T09:39:08.192Z,47.53
2023-02-23T09:41:52.619Z,49.20
2023-02-23T09:44:26.271Z,45.40
2023-02-23T09:46:59.408Z,52.57
2023-02-23T09:49:29.332Z,50.90
2023-02-23T09:51:58.907Z,44.10
2023-02-23T09:54:28.025Z,45.37
2023-02-23T09:56:58.341Z,42.53
2023-02-23T09:59:26.140Z,44.47
2023-02-23T10:02:00.278Z,44.80
2023-02-23T10:04:28.850Z,45.03
2023-02-23T10:07:00.594Z,43.67
2023-02-23T10:09:34.415Z,42.17
2023-02-23T10:12:06.061Z,38.83
2023-02-23T10:14:48.852Z,37.37
2023-02-23T10:17:21.174Z,31.57
2023-02-23T10:19:51.983Z,32.20
2023-02-23T10:22:19.659Z,33.90
2023-02-23T10:24:51.064Z,29.77
2023-02-23T10:27:20.970Z,31.30
2023-02-23T10:29:50.146Z,29.30
2023-02-23T10:32:22.505Z,28.53
2023-02-23T10:34:51.133Z,28.13
2023-02-23T10:37:18.929Z,28.67
2023-02-23T10:39:49.968Z,34.80
2023-02-23T10:42:21.411Z,30.33
2023-02-23T10:44:50.008Z,33.47
2023-02-23T10:47:19.066Z,36.23
2023-02-23T10:49:47.932Z,39.27
2023-02-23T10:52:17.044Z,41.20
2023-02-23T10:54:47.575Z,42.63
2023-02-23T10:57:27.874Z,43.60
2023-02-23T11:00:18.216Z,43.13
2023-02-23T11:02:46.013Z,42.30
2023-02-23T11:05:35.614Z,48.07
2023-02-23T11:08:31.504Z,51.30
2023-02-23T11:11:21.728Z,48.37
2023-02-23T11:13:51.504Z,57.33
2023-02-23T11:16:21.038Z,55.87
2023-02-23T11:18:54.625Z,54.90
2023-02-23T11:21:24.601Z,57.57
2023-02-23T11:23:53.411Z,57.10
2023-02-23T11:26:30.008Z,58.50
2023-02-23T11:29:00.383Z,59.77
2023-02-23T11:31:32.072Z,58.50
2023-02-23T11:33:59.871Z,59.00
2023-02-23T11:36:28.914Z,54.00
2023-02-23T11:39:17.189Z,51.80
2023-02-23T11:41:44.892Z,51.87
2023-02-23T11:44:25.393Z,50.47
2023-02-23T11:46:53.182Z,49.93
2023-02-23T11:49:22.867Z,50.90
2023-02-23T11:51:51.778Z,53.43
2023-02-23T11:54:22.710Z,52.80
2023-02-23T11:56:54.035Z,56.07
2023-02-23T11:59:27.196Z,61.87
2023-02-23T12:01:55.513Z,61.77
2023-02-23T12:04:29.536Z,66.53
2023-02-23T12:07:17.999Z,66.93
2023-02-23T12:09:46.030Z,61.70
2023-02-23T12:12:15.219Z,63.40
2023-02-23T12:14:49.617Z,58.67
2023-02-23T12:17:18.915Z,61.67
2023-02-23T12:19:48.624Z,63.03
2023-02-23T12:22:17.369Z,69.83
2023-02-23T12:24:48.661Z,77.20
2023-02-23T12:27:17.190Z,74.73
2023-02-23T12:29:59.989Z,72.33
2023-02-23T12:32:29.269Z,75.23
2023-02-23T12:34:59.244Z,61.07
2023-02-23T12:37:36.949Z,61.10
2023-02-23T12:40:11.483Z,57.93
2023-02-23T12:42:41.228Z,55.27
2023-02-23T12:45:14.835Z,52.87
2023-02-23T12:47:45.203Z,55.43
2023-02-23T12:50:15.231Z,54.27
2023-02-23T12:52:45.184Z,51.93
2023-02-23T12:55:13.274Z,50.13
2023-02-23T12:57:44.904Z,55.33
2023-02-23T13:00:31.028Z,49.67
2023-02-23T13:03:14.339Z,48.67
2023-02-23T13:05:42.477Z,54.67
2023-02-23T13:08:15.445Z,47.63
2023-02-23T13:10:47.228Z,47.17
2023-02-23T13:13:21.697Z,43.37
2023-02-23T13:16:02.145Z,44.87
2023-02-23T13:18:33.716Z,43.27
2023-02-23T13:21:05.341Z,41.40
2023-02-23T13:23:35.977Z,48.70
2023-02-23T13:26:10.718Z,42.47
2023-02-23T13:28:43.472Z,41.37
2023-02-23T13:31:23.407Z,43.27
2023-02-23T13:33:51.385Z,42.33
2023-02-23T13:36:19.196Z,45.67
2023-02-23T13:38:54.985Z,44.17
2023-02-23T13:41:29.109Z,47.03
2023-02-23T13:43:58.508Z,46.23
2023-02-23T13:46:31.276Z,51.80
2023-02-23T13:49:02.384Z,48.40
2023-02-23T13:51:34.460Z,48.53
2023-02-23T13:54:06.424Z,48.93
2023-02-23T13:56:38.187Z,45.63
2023-02-23T13:59:08.356Z,49.50
2023-02-23T14:01:39.594Z,45.03
2023-02-23T14:04:12.509Z,45.87
2023-02-23T14:06:41.744Z,42.13
2023-02-23T14:09:10.419Z,36.97
2023-02-23T14:11:48.625Z,37.50
2023-02-23T14:14:33.338Z,37.97
2023-02-23T14:17:30.079Z,34.43
2023-02-23T14:20:07.216Z,29.30
2023-02-23T14:22:35.884Z,30.50
2023-02-23T14:25:45.464Z,27.03
2023-02-23T14:28:24.318Z,33.63
2023-02-23T14:31:01.308Z,28.30
2023-02-23T14:33:37.643Z,25.47
2023-02-23T14:36:29.651Z,28.70
2023-02-23T14:39:00.570Z,23.70
2023-02-23T14:41:30.305Z,23.07
2023-02-23T14:44:00.761Z,22.00
2023-02-23T14:46:28.523Z,23.03
2023-02-23T14:49:01.767Z,20.10
2023-02-23T14:51:35.417Z,18.73
2023-02-23T14:54:04.888Z,21.80
2023-02-23T14:56:43.805Z,19.37
2023-02-23T14:59:18.320Z,19.83
2023-02-23T15:01:46.091Z,19.07
2023-02-23T15:04:17.275Z,18.43
2023-02-23T15:06:46.936Z,20.40
2023-02-23T15:09:18.355Z,16.70
2023-02-23T15:11:48.568Z,22.83
2023-02-23T15:14:26.929Z,17.80
2023-02-23T15:16:56.092Z,20.10
2023-02-23T15:19:35.936Z,20.80
2023-02-23T15:22:04.834Z,19.23
2023-02-23T15:24:34.104Z,20.53
2023-02-23T15:27:01.869Z,18.33
2023-02-23T15:29:32.575Z,20.00
2023-02-23T15:32:14.874Z,20.20
2023-02-23T15:34:44.171Z,22.20
2023-02-23T15:37:14.292Z,22.00
2023-02-23T15:39:44.930Z,21.77
2023-02-23T15:42:15.079Z,23.47
2023-02-23T15:44:45.081Z,22.17
2023-02-23T15:47:18.344Z,20.50
2023-02-23T15:49:47.483Z,21.23
2023-02-23T15:52:16.832Z,19.37
2023-02-23T15:54:48.247Z,22.07
2023-02-23T15:57:19.956Z,22.00
2023-02-23T15:59:48.628Z,22.90
2023-02-23T16:02:19.388Z,23.77
2023-02-23T16:04:49.878Z,22.07
2023-02-23T16:12:37.220Z,25.60
2023-02-23T16:15:06.113Z,27.60
2023-02-23T16:17:36.344Z,26.50
2023-02-23T16:20:11.916Z,30.57
2023-02-23T16:22:40.102Z,26.83
2023-02-23T16:25:09.691Z,26.10
2023-02-23T16:27:37.559Z,24.33
2023-02-23T16:30:18.552Z,26.33
2023-02-23T16:32:46.421Z,27.30
2023-02-23T16:35:20.364Z,24.03
2023-02-23T16:37:56.234Z,27.87
2023-02-23T16:40:32.633Z,26.70
2023-02-23T16:43:00.487Z,24.70
2023-02-23T16:45:29.688Z,29.87
2023-02-23T16:48:02.123Z,24.80
2023-02-23T16:50:33.463Z,26.87
2023-02-23T16:53:02.116Z,25.47
2023-02-23T16:55:33.753Z,30.23
2023-02-23T16:58:02.917Z,26.70
2023-02-23T17:00:31.468Z,26.87
2023-02-23T17:03:00.492Z,31.93
2023-02-23T17:05:28.816Z,29.83
2023-02-23T17:07:58.945Z,29.93
2023-02-23T17:10:27.857Z,29.40
2023-02-23T17:12:56.484Z,31.43
2023-02-23T17:15:27.385Z,29.20
2023-02-23T17:17:56.049Z,31.60
2023-02-23T17:20:25.763Z,31.73
2023-02-23T17:22:54.444Z,35.10
2023-02-23T17:25:24.261Z,34.43
2023-02-23T17:27:52.270Z,34.83
2023-02-23T17:30:20.092Z,36.30
2023-02-23T17:32:47.890Z,37.43
2023-02-23T17:35:15.810Z,40.37
2023-02-23T17:37:44.612Z,37.17
2023-02-23T17:40:14.423Z,37.70
2023-02-23T17:42:43.619Z,34.53
2023-02-23T17:45:11.413Z,36.33
2023-02-23T17:47:39.829Z,38.40
2023-02-23T17:50:08.406Z,38.10
2023-02-23T17:52:36.142Z,38.03
2023-02-23T17:57:37.670Z,39.80
2023-02-23T18:00:13.073Z,37.47
2023-02-23T18:02:41.056Z,38.00
2023-02-23T18:05:09.409Z,33.87
2023-02-23T18:07:37.268Z,34.10
2023-02-23T18:10:05.793Z,32.43
2023-02-23T18:12:34.035Z,31.53
2023-02-23T18:15:01.825Z,28.57
2023-02-23T18:17:32.448Z,29.63
2023-02-23T18:20:01.355Z,27.20
2023-02-23T18:22:29.011Z,30.97
2023-02-23T18:24:57.367Z,26.47
2023-02-23T18:27:26.209Z,25.57
2023-02-23T18:29:54.221Z,21.03
2023-02-23T18:32:21.998Z,24.87
2023-02-23T18:34:52.284Z,21.87
2023-02-23T18:37:25.249Z,18.97
2023-02-23T18:39:54.326Z,18.50
2023-02-23T18:42:40.187Z,22.93
2023-02-23T18:45:09.119Z,24.83
2023-02-23T18:47:36.948Z,28.30
2023-02-23T18:50:06.756Z,30.27
2023-02-23T18:52:36.615Z,28.50
2023-02-23T18:55:05.592Z,23.73
2023-02-23T18:57:33.512Z,25.40
2023-02-23T19:00:01.289Z,23.80
2023-02-23T19:02:29.450Z,24.97
2023-02-23T19:05:02.740Z,24.10
2023-02-23T19:07:32.468Z,23.40
2023-02-23T19:10:05.542Z,21.63
2023-02-23T19:12:33.537Z,22.30
2023-02-23T19:15:01.301Z,23.40
2023-02-23T19:17:30.112Z,23.33
2023-02-23T19:19:58.164Z,22.47
2023-02-23T19:22:26.002Z,22.23
2023-02-23T19:24:56.270Z,21.87
2023-02-23T19:27:24.003Z,24.03
2023-02-23T19:29:51.811Z,27.73
2023-02-23T19:32:19.716Z,21.53
2023-02-23T19:34:47.882Z,25.17
2023-02-23T19:37:15.679Z,21.50
2023-02-23T19:39:45.067Z,22.47
2023-02-23T19:42:18.245Z,20.87
2023-02-23T19:44:45.956Z,22.90
2023-02-23T19:47:14.146Z,27.03
2023-02-23T19:49:41.899Z,25.40
2023-02-23T19:52:09.837Z,27.37
2023-02-23T19:54:38.657Z,21.47
2023-02-23T19:57:06.378Z,19.10
2023-02-23T19:59:38.115Z,23.80
2023-02-23T20:02:05.831Z,21.80
2023-02-23T20:04:33.893Z,20.10
2023-02-23T20:07:01.561Z,23.63
2023-02-23T20:09:29.516Z,24.30
2023-02-23T20:11:57.324Z,24.40
2023-02-23T20:14:25.208Z,21.00
2023-02-23T20:16:54.493Z,25.33
2023-02-23T20:19:23.375Z,21.20
2023-02-23T20:21:51.175Z,21.93
2023-02-23T20:24:19.129Z,24.20
2023-02-23T20:26:46.843Z,21.20
2023-02-23T20:29:17.940Z,21.47
2023-02-23T20:31:50.602Z,23.73
2023-02-23T20:34:23.699Z,21.60
2023-02-23T20:36:52.021Z,24.00
2023-02-23T20:39:19.927Z,22.23
2023-02-23T20:41:47.891Z,24.27
2023-02-23T20:44:16.520Z,24.77
2023-02-23T20:46:46.210Z,25.07
2023-02-23T20:49:14.293Z,24.43
2023-02-23T20:51:44.631Z,26.60
2023-02-23T20:54:12.806Z,23.00
2023-02-23T20:56:40.712Z,25.03
2023-02-23T20:59:10.998Z,25.60
2023-02-23T21:01:57.493Z,24.03
2023-02-23T21:04:25.301Z,25.17
2023-02-23T21:06:56.034Z,25.07
2023-02-23T21:10:08.409Z,26.33
2023-02-23T21:12:38.589Z,27.40
2023-02-23T21:15:09.160Z,25.80
2023-02-23T21:17:38.471Z,29.43
2023-02-23T21:20:13.291Z,32.33
2023-02-23T21:22:42.728Z,25.37
2023-02-23T21:25:15.218Z,30.80
2023-02-23T21:27:44.925Z,26.87
2023-02-23T21:30:32.992Z,31.43
2023-02-23T21:33:00.794Z,30.27
2023-02-23T21:35:28.675Z,29.03
2023-02-23T21:37:57.904Z,34.30
2023-02-23T21:40:25.830Z,34.03
2023-02-23T21:42:53.615Z,36.50
2023-02-23T21:45:21.493Z,32.77
2023-02-23T21:47:49.581Z,37.10
2023-02-23T21:50:18.949Z,34.53
2023-02-23T21:52:48.519Z,39.70
2023-02-23T21:55:21.950Z,36.10
2023-02-23T21:57:50.415Z,40.97
2023-02-23T22:00:18.869Z,36.70
2023-02-23T22:02:47.458Z,40.40
2023-02-23T22:05:15.924Z,37.00
2023-02-23T22:07:48.478Z,38.23
2023-02-23T22:10:18.532Z,40.10
2023-02-23T22:12:46.363Z,36.40
2023-02-23T22:15:15.671Z,39.67
2023-02-23T22:17:43.458Z,40.13
2023-02-23T22:20:13.019Z,40.57
2023-02-23T22:22:41.244Z,37.20
2023-02-23T22:25:09.515Z,39.90
2023-02-23T22:27:41.501Z,33.60
2023-02-23T22:30:12.048Z,31.20
2023-02-23T22:32:42.788Z,30.57
2023-02-23T22:35:11.341Z,32.70
2023-02-23T22:38:05.659Z,27.10
2023-02-23T22:40:33.406Z,28.67
2023-02-23T22:43:02.582Z,26.70
2023-02-23T22:45:30.299Z,27.30
2023-02-23T22:48:01.499Z,25.33
2023-02-23T22:50:29.653Z,26.27
2023-02-23T22:52:57.574Z,25.13
2023-02-23T22:55:29.281Z,23.23
2023-02-23T22:57:57.055Z,23.37
2023-02-23T23:00:27.181Z,25.60
2023-02-23T23:02:55.378Z,19.57
2023-02-23T23:05:24.297Z,15.87
2023-02-23T23:07:52.139Z,17.87
2023-02-23T23:10:20.302Z,14.63
2023-02-23T23:12:48.798Z,15.67
2023-02-23T23:15:18.930Z,11.00
2023-02-23T23:17:49.402Z,12.97
2023-02-23T23:20:18.772Z,10.50
2023-02-23T23:22:46.590Z,10.03
2023-02-23T23:25:15.725Z,9.30
2023-02-23T23:27:44.542Z,10.27
2023-02-23T23:30:13.422Z,10.53
2023-02-23T23:32:41.438Z,10.17
2023-02-23T23:35:15.326Z,11.53
2023-02-23T23:37:43.254Z,11.23
2023-02-23T23:40:14.784Z,13.53
2023-02-23T23:42:45.888Z,10.13
2023-02-23T23:45:16.195Z,13.03
2023-02-23T23:47:44.846Z,12.53
2023-02-23T23:50:15.499Z,12.73
2023-02-23T23:52:44.413Z,14.03
2023-02-23T23:57:46.154Z,19.50
